createdAt,value
2022-11-24T00:01:16.723Z,8.55
2022-11-24T00:03:45.955Z,8.60
2022-11-24T00:06:15.890Z,8.25
2022-11-24T00:08:45.798Z,8.70
2022-11-24T00:11:16.692Z,8.20
2022-11-24T00:13:44.520Z,8.68
2022-11-24T00:16:16.171Z,8.68
2022-11-24T00:18:45.621Z,8.65
2022-11-24T00:21:14.953Z,8.98
2022-11-24T00:23:42.126Z,8.13
2022-11-24T00:26:16.432Z,7.45
2022-11-24T00:28:45.531Z,8.45
2022-11-24T00:31:21.305Z,8.20
2022-11-24T00:33:51.947Z,7.97
2022-11-24T00:36:23.730Z,8.15
2022-11-24T00:39:00.316Z,7.88
2022-11-24T00:41:29.253Z,7.90
2022-11-24T00:43:57.132Z,8.30
2022-11-24T00:46:25.571Z,7.63
2022-11-24T00:48:53.911Z,7.43
2022-11-24T00:51:27.047Z,7.60
2022-11-24T00:53:56.377Z,7.90
2022-11-24T00:56:25.058Z,7.55
2022-11-24T00:58:53.007Z,7.10
2022-11-24T01:01:27.174Z,7.50
2022-11-24T01:03:55.373Z,7.63
2022-11-24T01:06:25.795Z,7.93
2022-11-24T01:08:53.229Z,6.88
2022-11-24T01:11:24.747Z,7.68
2022-11-24T01:13:55.849Z,6.70
2022-11-24T01:16:33.297Z,6.60
2022-11-24T01:19:01.059Z,7.03
2022-11-24T01:21:28.142Z,7.22
2022-11-24T01:23:55.415Z,6.85
2022-11-24T01:26:23.355Z,7.53
2022-11-24T01:28:58.099Z,7.28
2022-11-24T01:31:27.043Z,6.78
2022-11-24T01:33:54.552Z,7.38
2022-11-24T01:36:22.309Z,6.82
2022-11-24T01:38:49.970Z,6.43
2022-11-24T01:41:21.250Z,7.00
2022-11-24T01:43:49.400Z,6.30
2022-11-24T01:46:35.827Z,7.07
2022-11-24T01:51:36.158Z,6.70
2022-11-24T01:54:09.490Z,6.97
2022-11-24T01:56:40.861Z,6.60
2022-11-24T01:59:12.570Z,6.25
2022-11-24T02:01:39.927Z,6.75
2022-11-24T02:04:14.918Z,7.05
2022-11-24T02:06:43.735Z,6.28
2022-11-24T02:09:23.315Z,6.88
2022-11-24T02:11:51.869Z,6.72
2022-11-24T02:14:21.060Z,6.38
2022-11-24T02:16:53.198Z,6.38
2022-11-24T02:19:40.492Z,6.60
2022-11-24T02:22:40.549Z,6.20
2022-11-24T02:25:52.554Z,6.38
2022-11-24T02:28:22.534Z,5.88
2022-11-24T02:30:50.974Z,6.20
2022-11-24T02:33:20.268Z,6.57
2022-11-24T02:35:47.488Z,6.53
2022-11-24T02:38:14.743Z,6.65
2022-11-24T02:40:49.252Z,5.80
2022-11-24T02:43:20.985Z,6.60
2022-11-24T02:45:48.154Z,6.18
2022-11-24T02:48:16.366Z,6.70
2022-11-24T02:50:43.630Z,5.93
2022-11-24T02:53:10.859Z,6.88
2022-11-24T02:55:38.054Z,6.22
2022-11-24T02:58:05.104Z,6.03
2022-11-24T03:00:32.248Z,6.25
2022-11-24T03:02:59.393Z,6.03
2022-11-24T03:05:26.633Z,6.53
2022-11-24T03:07:53.710Z,6.40
2022-11-24T03:10:21.027Z,6.63
2022-11-24T03:12:48.082Z,5.65
2022-11-24T03:15:15.314Z,6.32
2022-11-24T03:17:42.421Z,5.60
2022-11-24T03:20:10.667Z,5.57
2022-11-24T03:22:38.079Z,5.55
2022-11-24T03:25:05.701Z,5.68
2022-11-24T03:27:32.857Z,5.30
2022-11-24T03:29:59.961Z,5.85
2022-11-24T03:32:27.080Z,5.63
2022-11-24T03:34:54.125Z,5.78
2022-11-24T03:37:22.534Z,4.93
2022-11-24T03:39:49.802Z,4.93
2022-11-24T03:42:16.922Z,5.55
2022-11-24T03:44:44.010Z,4.53
2022-11-24T03:47:12.521Z,5.57
2022-11-24T03:49:41.580Z,5.57
2022-11-24T03:52:09.185Z,5.00
2022-11-24T03:54:36.499Z,5.10
2022-11-24T03:57:03.947Z,5.13
2022-11-24T03:59:31.024Z,4.95
2022-11-24T04:01:58.255Z,4.60
2022-11-24T04:04:25.364Z,4.75
2022-11-24T04:06:52.452Z,4.50
2022-11-24T04:09:19.537Z,4.85
2022-11-24T04:12:05.175Z,4.90
2022-11-24T04:14:32.619Z,4.97
2022-11-24T04:17:00.026Z,4.47
2022-11-24T04:19:27.073Z,4.70
2022-11-24T04:21:54.285Z,4.70
2022-11-24T04:24:21.287Z,4.30
2022-11-24T04:26:48.349Z,4.70
2022-11-24T04:29:15.520Z,4.57
2022-11-24T04:31:42.634Z,4.07
2022-11-24T04:34:11.080Z,4.97
2022-11-24T04:36:38.122Z,4.72
2022-11-24T04:39:24.144Z,4.57
2022-11-24T04:41:52.292Z,4.93
2022-11-24T04:44:19.483Z,4.80
2022-11-24T04:46:46.620Z,4.85
2022-11-24T04:49:13.759Z,4.90
2022-11-24T04:51:42.617Z,4.70
2022-11-24T04:54:12.589Z,4.70
2022-11-24T04:56:41.055Z,4.95
2022-11-24T04:59:08.866Z,4.40
2022-11-24T05:01:36.149Z,4.75
2022-11-24T05:04:03.414Z,5.20
2022-11-24T05:06:30.583Z,4.78
2022-11-24T05:08:57.662Z,4.18
2022-11-24T05:11:24.722Z,5.03
2022-11-24T05:13:53.591Z,4.72
2022-11-24T05:16:20.671Z,5.10
2022-11-24T05:18:47.795Z,5.20
2022-11-24T05:21:15.055Z,5.22
2022-11-24T05:23:42.100Z,5.25
2022-11-24T05:26:09.272Z,4.72
2022-11-24T05:28:36.432Z,5.05
2022-11-24T05:31:04.358Z,5.28
2022-11-24T05:33:33.424Z,4.95
2022-11-24T05:36:02.989Z,5.53
2022-11-24T05:38:31.053Z,6.05
2022-11-24T05:41:03.610Z,5.20
2022-11-24T05:43:31.526Z,4.85
2022-11-24T05:46:02.278Z,4.68
2022-11-24T05:48:29.394Z,5.25
2022-11-24T05:50:58.120Z,4.47
2022-11-24T05:53:26.951Z,4.82
2022-11-24T05:55:54.265Z,4.95
2022-11-24T05:58:21.366Z,5.00
2022-11-24T06:00:48.665Z,5.03
2022-11-24T06:03:15.853Z,5.07
2022-11-24T06:05:47.246Z,5.10
2022-11-24T06:08:15.029Z,4.90
2022-11-24T06:10:42.291Z,4.55
2022-11-24T06:13:09.658Z,4.75
2022-11-24T06:15:37.742Z,5.07
2022-11-24T06:18:04.928Z,4.47
2022-11-24T06:20:33.001Z,4.70
2022-11-24T06:23:01.479Z,5.43
2022-11-24T06:25:29.421Z,5.18
2022-11-24T06:27:56.625Z,4.85
2022-11-24T06:30:23.770Z,4.95
2022-11-24T06:32:55.382Z,4.90
2022-11-24T06:35:22.534Z,5.07
2022-11-24T06:37:49.605Z,4.88
2022-11-24T06:40:17.057Z,4.93
2022-11-24T06:42:51.450Z,5.60
2022-11-24T06:45:18.653Z,4.80
2022-11-24T06:47:45.712Z,4.78
2022-11-24T06:50:12.767Z,4.90
2022-11-24T06:52:40.029Z,5.50
2022-11-24T06:55:07.809Z,4.90
2022-11-24T06:57:35.264Z,5.30
2022-11-24T07:00:05.492Z,4.93
2022-11-24T07:02:32.725Z,5.25
2022-11-24T07:05:00.014Z,5.50
2022-11-24T07:07:27.241Z,5.05
2022-11-24T07:09:54.336Z,4.70
2022-11-24T07:12:21.529Z,4.93
2022-11-24T07:14:48.669Z,4.80
2022-11-24T07:17:15.710Z,4.68
2022-11-24T07:19:42.708Z,5.72
2022-11-24T07:22:09.764Z,5.80
2022-11-24T07:24:37.137Z,5.40
2022-11-24T07:27:04.595Z,5.03
2022-11-24T07:29:31.855Z,5.35
2022-11-24T07:32:05.044Z,5.53
2022-11-24T07:34:33.157Z,5.70
2022-11-24T07:37:00.469Z,5.70
2022-11-24T07:39:27.553Z,5.43
2022-11-24T07:41:54.700Z,5.47
2022-11-24T07:44:21.759Z,5.43
2022-11-24T07:47:09.104Z,5.53
2022-11-24T07:49:36.293Z,5.18
2022-11-24T07:52:05.191Z,5.55
2022-11-24T07:54:32.682Z,5.68
2022-11-24T07:57:00.155Z,5.72
2022-11-24T07:59:27.415Z,5.75
2022-11-24T08:01:54.636Z,6.03
2022-11-24T08:04:21.802Z,6.07
2022-11-24T08:06:48.891Z,5.55
2022-11-24T08:09:15.984Z,5.85
2022-11-24T08:11:43.036Z,6.55
2022-11-24T08:14:10.083Z,6.10
2022-11-24T08:16:37.159Z,6.07
2022-11-24T08:19:04.304Z,6.07
2022-11-24T08:21:32.485Z,6.00
2022-11-24T08:23:59.702Z,5.80
2022-11-24T08:26:27.165Z,5.88
2022-11-24T08:28:57.901Z,6.43
2022-11-24T08:31:32.719Z,6.18
2022-11-24T08:34:02.281Z,6.80
2022-11-24T08:36:29.702Z,6.55
2022-11-24T08:38:58.809Z,5.97
2022-11-24T08:41:28.071Z,6.47
2022-11-24T08:43:55.721Z,6.65
2022-11-24T08:46:23.920Z,6.03
2022-11-24T08:48:55.301Z,5.95
2022-11-24T08:51:26.182Z,5.88
2022-11-24T08:53:58.967Z,5.00
2022-11-24T08:56:28.600Z,5.55
2022-11-24T08:58:57.456Z,5.82
2022-11-24T09:01:26.067Z,5.07
2022-11-24T09:03:53.811Z,5.22
2022-11-24T09:06:25.773Z,4.65
2022-11-24T09:08:55.689Z,4.53
2022-11-24T09:11:24.724Z,4.80
2022-11-24T09:13:51.920Z,5.07
2022-11-24T09:16:28.890Z,5.35
2022-11-24T09:19:01.807Z,4.70
2022-11-24T09:21:30.215Z,4.68
2022-11-24T09:23:57.650Z,4.30
2022-11-24T09:26:31.054Z,4.05
2022-11-24T09:28:59.907Z,3.45
2022-11-24T09:31:33.676Z,2.97
2022-11-24T09:34:02.403Z,3.20
2022-11-24T09:36:29.744Z,3.38
2022-11-24T09:38:56.871Z,3.08
2022-11-24T09:41:51.861Z,2.80
2022-11-24T09:44:59.034Z,3.15
2022-11-24T09:47:59.510Z,3.40
2022-11-24T09:50:35.258Z,2.83
2022-11-24T09:53:37.463Z,3.00
2022-11-24T09:56:31.388Z,3.20
2022-11-24T09:59:14.962Z,3.28
2022-11-24T10:01:44.709Z,2.85
2022-11-24T10:04:25.540Z,2.92
2022-11-24T10:07:18.944Z,2.58
2022-11-24T10:09:59.687Z,2.70
2022-11-24T10:12:57.636Z,2.80
2022-11-24T10:15:50.664Z,2.95
2022-11-24T10:18:26.628Z,2.80
2022-11-24T10:21:34.148Z,3.10
2022-11-24T10:24:10.194Z,2.88
2022-11-24T10:29:32.798Z,3.40
2022-11-24T10:32:05.285Z,3.03
2022-11-24T10:34:41.541Z,3.40
2022-11-24T10:37:11.470Z,3.60
2022-11-24T10:39:53.770Z,3.13
2022-11-24T10:42:33.617Z,3.50
2022-11-24T10:45:15.449Z,3.85
2022-11-24T10:47:44.839Z,3.72
2022-11-24T10:50:28.319Z,3.60
2022-11-24T10:53:32.043Z,4.38
2022-11-24T10:56:02.670Z,4.28
2022-11-24T10:58:37.396Z,4.28
2022-11-24T11:01:14.436Z,4.10
2022-11-24T11:03:52.602Z,4.32
2022-11-24T11:06:32.608Z,4.18
2022-11-24T11:09:09.130Z,4.07
2022-11-24T11:11:41.797Z,4.25
2022-11-24T11:14:12.977Z,3.85
2022-11-24T11:16:42.612Z,4.00
2022-11-24T11:20:00.441Z,4.22
2022-11-24T11:22:30.769Z,4.40
2022-11-24T11:25:12.524Z,3.90
2022-11-24T11:27:41.920Z,4.07
2022-11-24T11:36:11.248Z,3.85
2022-11-24T11:38:40.751Z,4.05
2022-11-24T11:41:19.934Z,3.80
2022-11-24T11:43:50.877Z,4.07
2022-11-24T11:46:18.303Z,3.60
2022-11-24T11:48:46.919Z,4.47
2022-11-24T11:51:24.683Z,4.68
2022-11-24T11:54:25.975Z,3.90
2022-11-24T11:57:21.895Z,4.30
2022-11-24T12:00:19.042Z,3.97
2022-11-24T12:02:58.431Z,3.80
2022-11-24T12:05:47.973Z,4.32
2022-11-24T12:08:23.979Z,3.95
2022-11-24T12:13:53.531Z,3.70
2022-11-24T12:16:38.331Z,4.05
2022-11-24T12:19:27.062Z,3.42
2022-11-24T12:22:44.051Z,4.15
2022-11-24T12:25:48.082Z,4.17
2022-11-24T12:28:47.513Z,4.20
2022-11-24T12:31:45.040Z,4.20
2022-11-24T12:34:21.567Z,4.03
2022-11-24T12:37:30.356Z,3.90
2022-11-24T12:40:17.383Z,4.00
2022-11-24T12:43:17.450Z,3.70
2022-11-24T12:46:17.457Z,3.60
2022-11-24T12:49:14.837Z,4.00
2022-11-24T12:52:26.528Z,3.17
2022-11-24T12:54:55.044Z,3.65
2022-11-24T12:57:30.978Z,4.00
2022-11-24T13:00:15.176Z,3.88
2022-11-24T13:03:25.286Z,3.72
2022-11-24T13:06:25.824Z,4.03
2022-11-24T13:08:53.061Z,4.10
2022-11-24T13:11:22.904Z,4.07
2022-11-24T13:14:18.789Z,4.55
2022-11-24T13:17:31.644Z,4.35
2022-11-24T13:20:21.629Z,4.38
2022-11-24T13:23:02.635Z,4.13
2022-11-24T13:25:35.485Z,4.00
2022-11-24T13:28:06.673Z,4.15
2022-11-24T13:30:33.722Z,5.22
2022-11-24T13:33:16.973Z,4.80
2022-11-24T13:36:02.701Z,4.82
2022-11-24T13:38:45.896Z,5.07
2022-11-24T13:41:31.614Z,5.25
2022-11-24T13:44:49.624Z,5.10
2022-11-24T13:50:22.916Z,5.25
2022-11-24T13:53:00.294Z,5.53
2022-11-24T13:55:38.845Z,5.22
2022-11-24T13:58:11.826Z,4.72
2022-11-24T14:01:26.037Z,5.03
2022-11-24T14:04:34.220Z,5.18
2022-11-24T14:07:09.495Z,5.38
2022-11-24T14:09:47.808Z,5.20
2022-11-24T14:12:21.440Z,4.70
2022-11-24T14:14:51.673Z,4.50
2022-11-24T14:17:28.295Z,5.55
2022-11-24T14:19:57.822Z,4.50
2022-11-24T14:22:38.166Z,4.80
2022-11-24T14:25:06.079Z,4.70
2022-11-24T14:27:37.647Z,4.50
2022-11-24T14:30:20.080Z,4.70
2022-11-24T14:33:02.369Z,5.13
2022-11-24T14:35:35.275Z,4.78
2022-11-24T14:38:05.437Z,4.38
2022-11-24T14:40:43.474Z,4.68
2022-11-24T14:43:34.607Z,4.50
2022-11-24T14:46:06.103Z,4.75
2022-11-24T14:48:37.172Z,4.78
2022-11-24T14:51:16.888Z,4.65
2022-11-24T14:53:51.344Z,4.97
2022-11-24T14:57:05.506Z,4.72
2022-11-24T14:59:38.160Z,4.32
2022-11-24T15:02:55.299Z,4.68
2022-11-24T15:05:24.822Z,4.47
2022-11-24T15:08:03.225Z,4.97
2022-11-24T15:10:37.012Z,4.95
2022-11-24T15:13:20.709Z,4.35
2022-11-24T15:16:03.441Z,5.20
2022-11-24T15:18:45.210Z,4.70
2022-11-24T15:21:18.597Z,4.88
2022-11-24T15:24:13.857Z,4.93
2022-11-24T15:26:42.344Z,4.75
2022-11-24T15:29:13.480Z,5.35
2022-11-24T15:31:43.372Z,5.38
2022-11-24T15:34:14.644Z,4.93
2022-11-24T15:36:41.777Z,5.15
2022-11-24T15:39:08.925Z,4.97
2022-11-24T15:41:36.161Z,5.10
2022-11-24T15:44:03.447Z,4.88
2022-11-24T15:46:37.811Z,5.07
2022-11-24T15:49:06.148Z,4.88
2022-11-24T15:51:33.955Z,5.20
2022-11-24T15:54:01.693Z,4.88
2022-11-24T15:56:36.671Z,4.53
2022-11-24T15:59:04.670Z,4.80
2022-11-24T16:01:33.972Z,5.43
2022-11-24T16:04:02.090Z,4.80
2022-11-24T16:06:29.565Z,4.88
2022-11-24T16:08:58.188Z,4.63
2022-11-24T16:11:25.936Z,5.40
2022-11-24T16:13:54.353Z,5.53
2022-11-24T16:16:24.694Z,5.03
2022-11-24T16:18:52.328Z,5.07
2022-11-24T16:21:19.532Z,5.22
2022-11-24T16:23:47.901Z,5.22
2022-11-24T16:26:15.000Z,5.40
2022-11-24T16:28:42.870Z,6.18
2022-11-24T16:31:10.193Z,5.03
2022-11-24T16:33:40.700Z,5.65
2022-11-24T16:36:08.982Z,5.47
2022-11-24T16:38:36.249Z,6.05
2022-11-24T16:41:03.453Z,5.60
2022-11-24T16:43:30.756Z,6.15
2022-11-24T16:46:23.390Z,6.07
2022-11-24T16:48:53.681Z,5.60
2022-11-24T16:51:22.791Z,5.78
2022-11-24T16:53:58.859Z,6.28
2022-11-24T16:56:27.591Z,6.78
2022-11-24T16:58:55.051Z,6.57
2022-11-24T17:01:22.432Z,6.63
2022-11-24T17:03:49.641Z,6.97
2022-11-24T17:06:17.519Z,7.25
2022-11-24T17:08:46.397Z,7.43
2022-11-24T17:11:17.242Z,7.35
2022-11-24T17:13:45.886Z,7.47
2022-11-24T17:16:16.013Z,7.00
2022-11-24T17:18:43.606Z,7.78
2022-11-24T17:21:20.586Z,7.10
2022-11-24T17:23:48.191Z,7.45
2022-11-24T17:26:17.359Z,7.32
2022-11-24T17:28:45.814Z,7.55
2022-11-24T17:31:28.682Z,7.03
2022-11-24T17:33:58.597Z,6.70
2022-11-24T17:36:26.779Z,6.63
2022-11-24T17:38:54.086Z,7.10
2022-11-24T17:41:22.604Z,6.53
2022-11-24T17:43:57.827Z,6.20
2022-11-24T17:46:29.970Z,5.72
2022-11-24T17:48:58.153Z,5.97
2022-11-24T17:51:26.970Z,5.90
2022-11-24T17:53:55.731Z,6.25
2022-11-24T17:56:26.252Z,6.45
2022-11-24T17:58:59.476Z,6.53
2022-11-24T18:01:28.590Z,6.40
2022-11-24T18:03:56.148Z,6.07
2022-11-24T18:06:26.023Z,6.45
2022-11-24T18:08:54.181Z,5.90
2022-11-24T18:11:31.799Z,5.63
2022-11-24T18:14:02.537Z,6.63
2022-11-24T18:16:32.463Z,6.18
2022-11-24T18:19:11.030Z,6.70
2022-11-24T18:21:40.466Z,6.32
2022-11-24T18:24:09.625Z,7.60
2022-11-24T18:26:37.441Z,6.80
2022-11-24T18:29:04.799Z,6.00
2022-11-24T18:31:34.248Z,6.25
2022-11-24T18:34:02.600Z,6.05
2022-11-24T18:36:30.838Z,7.18
2022-11-24T18:39:07.896Z,6.70
2022-11-24T18:41:35.306Z,6.95
2022-11-24T18:44:03.248Z,6.63
2022-11-24T18:46:30.647Z,7.43
2022-11-24T18:48:58.913Z,7.00
2022-11-24T18:51:27.182Z,6.63
2022-11-24T18:53:54.740Z,7.30
2022-11-24T18:56:21.965Z,6.72
2022-11-24T18:58:53.651Z,6.65
2022-11-24T19:01:24.785Z,6.00
2022-11-24T19:04:02.048Z,6.55
2022-11-24T19:06:35.443Z,6.25
2022-11-24T19:09:12.302Z,6.88
2022-11-24T19:11:42.178Z,5.78
2022-11-24T19:14:13.702Z,6.38
2022-11-24T19:16:41.633Z,6.28
2022-11-24T19:19:12.404Z,6.43
2022-11-24T19:21:40.940Z,6.57
2022-11-24T19:24:15.926Z,6.20
2022-11-24T19:26:43.041Z,6.50
2022-11-24T19:29:10.295Z,6.30
2022-11-24T19:31:39.609Z,6.47
2022-11-24T19:34:08.124Z,6.88
2022-11-24T19:36:35.989Z,6.13
2022-11-24T19:39:04.845Z,6.45
2022-11-24T19:41:32.975Z,6.32
2022-11-24T19:44:00.585Z,6.07
2022-11-24T19:46:29.790Z,6.20
2022-11-24T19:49:00.839Z,6.13
2022-11-24T19:51:33.908Z,6.03
2022-11-24T19:54:02.341Z,6.47
2022-11-24T19:56:34.004Z,6.05
2022-11-24T19:59:04.048Z,6.07
2022-11-24T20:01:37.634Z,6.13
2022-11-24T20:04:15.597Z,5.85
2022-11-24T20:06:45.593Z,5.80
2022-11-24T20:09:17.973Z,6.80
2022-11-24T20:11:45.837Z,6.18
2022-11-24T20:14:15.632Z,6.55
2022-11-24T20:16:43.321Z,6.47
2022-11-24T20:19:13.759Z,6.57
2022-11-24T20:21:46.113Z,6.15
2022-11-24T20:24:23.239Z,6.53
2022-11-24T20:26:58.221Z,6.65
2022-11-24T20:29:28.299Z,6.22
2022-11-24T20:31:56.525Z,6.40
2022-11-24T20:34:24.430Z,7.03
2022-11-24T20:36:53.056Z,6.78
2022-11-24T20:39:25.420Z,6.28
2022-11-24T20:41:54.345Z,5.88
2022-11-24T20:44:22.699Z,6.72
2022-11-24T20:46:50.463Z,5.50
2022-11-24T20:49:20.212Z,5.93
2022-11-24T20:51:47.843Z,6.53
2022-11-24T20:54:18.005Z,5.93
2022-11-24T20:56:46.404Z,5.75
2022-11-24T20:59:17.857Z,5.57
2022-11-24T21:01:47.862Z,5.80
2022-11-24T21:04:22.565Z,5.82
2022-11-24T21:06:50.603Z,5.47
2022-11-24T21:09:18.450Z,5.93
2022-11-24T21:11:45.949Z,5.47
2022-11-24T21:14:13.773Z,5.78
2022-11-24T21:16:42.780Z,6.00
2022-11-24T21:19:13.673Z,5.30
2022-11-24T21:21:43.164Z,5.60
2022-11-24T21:24:14.251Z,5.78
2022-11-24T21:26:43.119Z,5.70
2022-11-24T21:29:13.925Z,4.97
2022-11-24T21:31:41.904Z,5.35
2022-11-24T21:34:10.213Z,5.18
2022-11-24T21:36:40.728Z,5.68
2022-11-24T21:39:12.054Z,5.55
2022-11-24T21:41:39.497Z,5.25
2022-11-24T21:44:06.594Z,5.05
2022-11-24T21:46:40.446Z,5.00
2022-11-24T21:49:09.684Z,5.53
2022-11-24T21:51:36.806Z,5.07
2022-11-24T21:54:04.011Z,4.63
2022-11-24T21:56:31.098Z,5.05
2022-11-24T21:58:58.847Z,4.82
2022-11-24T22:01:28.696Z,4.88
2022-11-24T22:03:56.599Z,4.90
2022-11-24T22:06:23.848Z,4.53
2022-11-24T22:08:51.204Z,4.88
2022-11-24T22:11:22.843Z,5.10
2022-11-24T22:13:50.800Z,4.97
2022-11-24T22:16:24.140Z,4.47
2022-11-24T22:18:51.889Z,4.63
2022-11-24T22:21:30.494Z,4.95
2022-11-24T22:23:57.689Z,4.68
2022-11-24T22:26:26.125Z,4.38
2022-11-24T22:28:57.993Z,4.65
2022-11-24T22:31:31.558Z,5.35
2022-11-24T22:34:00.101Z,5.28
2022-11-24T22:36:29.602Z,4.82
2022-11-24T22:38:59.932Z,5.28
2022-11-24T22:41:27.072Z,4.30
2022-11-24T22:43:54.422Z,4.75
2022-11-24T22:46:26.131Z,4.95
2022-11-24T22:48:54.967Z,4.95
2022-11-24T22:51:33.101Z,4.68
2022-11-24T22:54:03.577Z,4.70
2022-11-24T22:56:32.559Z,4.47
2022-11-24T22:59:01.401Z,5.25
2022-11-24T23:01:30.690Z,4.63
2022-11-24T23:03:58.121Z,4.68
2022-11-24T23:06:29.153Z,4.63
2022-11-24T23:08:58.437Z,4.93
2022-11-24T23:11:37.493Z,4.45
2022-11-24T23:14:07.951Z,4.82
2022-11-24T23:16:35.131Z,4.85
2022-11-24T23:19:02.211Z,5.35
2022-11-24T23:21:33.367Z,4.85
2022-11-24T23:24:03.067Z,4.65
2022-11-24T23:26:33.957Z,4.80
2022-11-24T23:29:00.985Z,4.88
2022-11-24T23:31:28.978Z,5.35
2022-11-24T23:34:21.944Z,4.82
2022-11-24T23:36:49.462Z,5.20
2022-11-24T23:39:17.960Z,4.72
2022-11-24T23:41:45.514Z,4.97
2022-11-24T23:44:12.791Z,5.07
2022-11-24T23:46:40.004Z,5.47
2022-11-24T23:49:07.084Z,5.72
2022-11-24T23:51:34.198Z,5.10
2022-11-24T23:54:01.775Z,5.55
2022-11-24T23:56:33.504Z,5.38
2022-11-24T23:59:03.667Z,5.47
